Hammonton, New Jersey
Current Conditions -  °F | °C
As of 1:54 AM on Saturday 25 Oct 2014 (Local Time) from KACY Reporting Station
Clear Clear  
Wind Chill: 44°   Ceiling: Unl
Heat Index: 46°   Visibility: 10mi
Dew Point: 39°   Wind: 5mph
Humidity: 76%   Direction: 320°NW
Pressure: 29.89"   Gusts: NA
Location:  39.64°N, 74.8°W
Report Text: KACY 250554Z 32004KT 10SM CLR 08/04 A2989 RMK AO2 SLP119 T00780039 10144 20072 51009
Loading
Personal Weather Stations






























Interactive Weather Map
Tropical Storm Tracking
New forecast layout! Learn more

10-Day Weather Forecast

Advertisements
Track Severe Weather on mobile